Terminal Aerodrome Forecast
Issued by NWS

Home | Current Version | Previous Version | Text Only | Print | Product List | Glossary On
Versions: 1 2 3 4 5 6 7 8 9 10 11 12 13 14 15 16 17 18 19
000
FTUS46 KMTR 211700
TAFMRY
TAF
KMRY 211739Z 2118/2218 04006KT P6SM SKC
     FM212000 32009KT P6SM SKC
     FM220300 VRB04KT P6SM SKC
     FM220900 30003KT P6SM BKN015
     FM221700 27004KT P6SM SCT015=

USA.gov is the U.S. government's official web portal to all federal, state and local government web resources and services.